Upstream stations:
Downstream station:
SHEF ID: ANTO2 Kiamichi River near Antlers, OK
STATION TYPE:
Regulating: Stage = 22.00, Flow = 20000
STAGE RIV-FLOW BAT-LOAD
ft cfs volt
Ccp-Rev Ccp-Rev Ccp-Rev
(US/Central)
01/21 00:00 2.62 140 12.40
01/21 01:00 2.63 142 12.37
01/21 02:00 2.63 142 12.36
01/21 03:00 2.63 142 12.33
01/21 04:00 2.63 142 12.30
01/21 05:00 2.63 142 12.26
01/21 06:00 2.63 142 12.22
01/21 07:00 2.62 140 12.20
01/21 08:00 2.62 140 12.19
01/21 09:00 2.63 142 12.44
01/21 10:00 2.65 146 14.05
01/21 11:00 2.63 142 13.86
01/21 12:00 2.63 142 13.62
01/21 13:00 2.63 142 13.47
01/21 14:00 2.62 140 13.39
01/21 15:00 2.61 138 13.26
01/21 16:00 2.60 136 13.12
01/21 17:00 2.60 136 12.93
01/21 18:00 2.60 136 12.70
01/21 19:00 2.59 134 12.56
01/21 20:00 2.59 134 12.50
01/21 21:00 2.59 134 12.47
01/21 22:00 2.59 134 12.44
01/21 23:00 2.59 134 12.42